createdAt,value
2019-06-20T00:00:41.715Z,74.02
2019-06-20T00:03:08.679Z,73.51
2019-06-20T00:05:35.625Z,72.49
2019-06-20T00:08:03.146Z,71.58
2019-06-20T00:10:29.987Z,73.13
2019-06-20T00:13:00.241Z,74.11
2019-06-20T00:15:25.232Z,72.58
2019-06-20T00:17:52.127Z,72.32
2019-06-20T00:20:18.954Z,71.90
2019-06-20T00:22:45.667Z,72.31
2019-06-20T00:25:12.538Z,71.98
2019-06-20T00:27:39.421Z,73.48
2019-06-20T00:30:07.991Z,73.87
2019-06-20T00:32:34.777Z,73.08
2019-06-20T00:35:01.903Z,74.53
2019-06-20T00:37:28.555Z,74.43
2019-06-20T00:39:55.306Z,73.82
2019-06-20T00:42:21.983Z,74.20
2019-06-20T00:44:48.666Z,73.56
2019-06-20T00:47:15.262Z,73.15
2019-06-20T00:49:41.899Z,74.13
2019-06-20T00:52:08.471Z,72.89
2019-06-20T00:54:35.189Z,72.99
2019-06-20T00:57:01.956Z,72.22
2019-06-20T00:59:28.972Z,71.50
2019-06-20T01:01:55.525Z,71.17
2019-06-20T01:04:22.249Z,72.13
2019-06-20T01:06:52.182Z,72.60
2019-06-20T01:09:18.898Z,71.88
2019-06-20T01:11:45.659Z,72.42
2019-06-20T01:14:12.231Z,72.57
2019-06-20T01:16:39.149Z,73.64
2019-06-20T01:19:05.797Z,74.04
2019-06-20T01:21:32.529Z,73.89
2019-06-20T01:23:59.240Z,72.21
2019-06-20T01:26:25.795Z,73.21
2019-06-20T01:28:52.489Z,74.14
2019-06-20T01:31:19.058Z,74.35
2019-06-20T01:33:45.677Z,74.31
2019-06-20T01:36:12.453Z,75.10
2019-06-20T01:38:39.252Z,74.05
2019-06-20T01:41:06.557Z,75.13
2019-06-20T01:43:49.148Z,75.26
2019-06-20T01:46:02.139Z,74.08
2019-06-20T01:48:28.716Z,73.55
2019-06-20T01:50:55.293Z,74.08
2019-06-20T01:53:40.688Z,74.05
2019-06-20T01:56:07.395Z,74.23
2019-06-20T01:58:34.034Z,74.10
2019-06-20T02:01:00.667Z,73.93
2019-06-20T02:03:28.654Z,74.29
2019-06-20T02:05:55.511Z,72.77
2019-06-20T02:08:22.157Z,72.69
2019-06-20T02:10:48.911Z,72.39
2019-06-20T02:13:15.477Z,72.84
2019-06-20T02:15:42.154Z,72.64
2019-06-20T02:18:09.087Z,72.14
2019-06-20T02:20:41.382Z,72.32
2019-06-20T02:23:08.139Z,71.72
2019-06-20T02:25:35.189Z,73.15
2019-06-20T02:28:02.150Z,73.15
2019-06-20T02:30:28.906Z,72.37
2019-06-20T02:32:55.707Z,73.26
2019-06-20T02:35:22.547Z,73.81
2019-06-20T02:37:49.104Z,74.35
2019-06-20T02:40:16.128Z,74.07
2019-06-20T02:42:43.000Z,74.49
2019-06-20T02:45:09.891Z,74.82
2019-06-20T02:47:36.703Z,74.57
2019-06-20T02:50:05.678Z,73.79
2019-06-20T02:52:32.635Z,73.53
2019-06-20T02:55:57.508Z,73.88
2019-06-20T02:58:24.122Z,73.96
2019-06-20T03:00:56.863Z,73.53
2019-06-20T03:03:25.588Z,72.72
2019-06-20T03:05:52.690Z,73.08
2019-06-20T03:08:19.557Z,72.53
2019-06-20T03:10:46.363Z,72.53
2019-06-20T03:13:13.465Z,73.63
2019-06-20T03:15:40.223Z,74.49
2019-06-20T03:18:07.114Z,75.21
2019-06-20T03:20:33.771Z,74.98
2019-06-20T03:23:00.386Z,74.56
2019-06-20T03:25:28.336Z,75.32
2019-06-20T03:27:54.976Z,75.45
2019-06-20T03:30:21.967Z,74.75
2019-06-20T03:32:48.628Z,75.61
2019-06-20T03:35:16.199Z,75.78
2019-06-20T03:37:42.796Z,75.60
2019-06-20T03:40:10.102Z,75.75
2019-06-20T03:42:36.813Z,75.90
2019-06-20T03:45:06.012Z,75.30
2019-06-20T03:47:32.720Z,74.97
2019-06-20T03:49:59.330Z,74.02
2019-06-20T03:52:25.884Z,75.19
2019-06-20T03:54:52.461Z,74.55
2019-06-20T03:57:19.125Z,73.19
2019-06-20T03:59:45.796Z,72.34
2019-06-20T04:02:13.452Z,72.38
2019-06-20T04:04:43.532Z,72.47
2019-06-20T04:07:10.171Z,73.89
2019-06-20T04:09:36.920Z,72.38
2019-06-20T04:12:03.678Z,72.31
2019-06-20T04:14:30.359Z,72.50
2019-06-20T04:16:56.971Z,72.07
2019-06-20T04:19:24.647Z,71.97
2019-06-20T04:21:51.268Z,72.85
2019-06-20T04:24:18.022Z,72.53
2019-06-20T04:26:44.601Z,73.09
2019-06-20T04:29:11.235Z,72.45
2019-06-20T04:31:37.977Z,72.60
2019-06-20T04:34:04.914Z,72.02
2019-06-20T04:36:31.519Z,73.09
2019-06-20T04:38:58.101Z,71.29
2019-06-20T04:41:24.703Z,72.46
2019-06-20T04:43:51.303Z,72.31
2019-06-20T04:46:20.225Z,72.25
2019-06-20T04:48:46.806Z,71.78
2019-06-20T04:51:13.373Z,71.24
2019-06-20T04:53:40.129Z,71.01
2019-06-20T04:56:06.910Z,70.87
2019-06-20T04:58:33.540Z,71.70
2019-06-20T05:01:00.263Z,70.92
2019-06-20T05:03:26.852Z,70.29
2019-06-20T05:05:53.500Z,71.48
2019-06-20T05:08:20.136Z,71.47
2019-06-20T05:10:46.931Z,70.42
2019-06-20T05:13:13.640Z,71.07
2019-06-20T05:15:52.067Z,70.84
2019-06-20T05:18:09.289Z,70.33
2019-06-20T05:20:36.012Z,71.20
2019-06-20T05:23:03.037Z,69.61
2019-06-20T05:25:29.738Z,70.26
2019-06-20T05:27:57.137Z,69.29
2019-06-20T05:30:24.103Z,69.82
2019-06-20T05:32:50.730Z,70.90
2019-06-20T05:35:17.600Z,68.92
2019-06-20T05:37:44.184Z,68.18
2019-06-20T05:40:11.592Z,67.92
2019-06-20T05:42:38.381Z,68.08
2019-06-20T05:45:06.996Z,68.00
2019-06-20T05:47:34.234Z,68.09
2019-06-20T05:50:00.969Z,68.10
2019-06-20T05:52:27.556Z,67.88
2019-06-20T05:54:54.126Z,67.36
2019-06-20T05:57:20.742Z,67.27
2019-06-20T05:59:47.312Z,67.63
2019-06-20T06:02:14.041Z,68.23
2019-06-20T06:04:40.658Z,67.45
2019-06-20T06:07:07.372Z,67.92
2019-06-20T06:09:34.095Z,67.51
2019-06-20T06:12:00.792Z,66.52
2019-06-20T06:14:27.500Z,65.90
2019-06-20T06:16:54.147Z,66.84
2019-06-20T06:19:20.732Z,66.22
2019-06-20T06:21:47.456Z,66.46
2019-06-20T06:24:14.380Z,66.59
2019-06-20T06:26:41.057Z,66.58
2019-06-20T06:29:08.045Z,66.05
2019-06-20T06:31:34.782Z,65.48
2019-06-20T06:34:01.557Z,65.27
2019-06-20T06:36:28.360Z,65.29
2019-06-20T06:38:54.914Z,65.42
2019-06-20T06:41:21.662Z,65.37
2019-06-20T06:43:49.548Z,65.22
2019-06-20T06:46:16.342Z,66.03
2019-06-20T06:48:43.200Z,64.98
2019-06-20T06:51:10.004Z,65.71
2019-06-20T06:53:36.917Z,64.69
2019-06-20T06:56:04.030Z,65.08
2019-06-20T06:58:30.705Z,65.87
2019-06-20T07:00:57.405Z,65.56
2019-06-20T07:03:24.342Z,65.83
2019-06-20T07:05:51.537Z,65.06
2019-06-20T07:08:18.174Z,64.96
2019-06-20T07:10:44.895Z,64.12
2019-06-20T07:13:11.516Z,64.27
2019-06-20T07:15:38.461Z,64.68
2019-06-20T07:18:05.362Z,64.08
2019-06-20T07:20:32.209Z,64.52
2019-06-20T07:22:58.995Z,63.22
2019-06-20T07:25:26.298Z,63.40
2019-06-20T07:27:52.883Z,62.88
2019-06-20T07:30:20.954Z,62.61
2019-06-20T07:32:47.840Z,63.15
2019-06-20T07:35:14.894Z,62.80
2019-06-20T07:37:41.711Z,63.36
2019-06-20T07:40:09.674Z,62.51
2019-06-20T07:42:36.984Z,62.57
2019-06-20T07:45:06.985Z,62.75
2019-06-20T07:47:35.170Z,62.36
2019-06-20T07:50:07.349Z,62.59
2019-06-20T07:52:34.404Z,62.68
2019-06-20T07:55:01.318Z,61.91
2019-06-20T07:57:28.011Z,61.63
2019-06-20T07:59:54.587Z,61.33
2019-06-20T08:02:21.351Z,61.78
2019-06-20T08:04:47.935Z,61.34
2019-06-20T08:07:14.546Z,60.48
2019-06-20T08:09:45.100Z,60.18
2019-06-20T08:12:09.753Z,60.80
2019-06-20T08:14:36.931Z,61.28
2019-06-20T08:17:03.656Z,60.87
2019-06-20T08:19:30.601Z,60.30
2019-06-20T08:21:57.294Z,59.83
2019-06-20T08:24:23.981Z,59.13
2019-06-20T08:26:50.795Z,58.72
2019-06-20T08:29:21.166Z,58.41
2019-06-20T08:31:46.335Z,57.78
2019-06-20T08:34:13.403Z,57.63
2019-06-20T08:36:40.220Z,58.61
2019-06-20T08:39:09.042Z,58.21
2019-06-20T08:41:35.784Z,58.45
2019-06-20T08:44:03.944Z,57.59
2019-06-20T08:46:31.207Z,57.56
2019-06-20T08:48:59.171Z,57.35
2019-06-20T08:51:26.320Z,56.78
2019-06-20T08:53:52.932Z,56.00
2019-06-20T08:56:19.596Z,56.27
2019-06-20T08:58:46.751Z,55.74
2019-06-20T09:01:13.662Z,55.26
2019-06-20T09:03:40.215Z,56.17
2019-06-20T09:06:07.732Z,55.76
2019-06-20T09:08:34.417Z,56.00
2019-06-20T09:11:01.801Z,55.75
2019-06-20T09:13:28.595Z,56.17
2019-06-20T09:15:56.673Z,56.35
2019-06-20T09:18:23.634Z,55.98
2019-06-20T09:20:52.691Z,56.44
2019-06-20T09:23:18.957Z,57.03
2019-06-20T09:25:46.027Z,56.43
2019-06-20T09:28:12.735Z,56.66
2019-06-20T09:30:39.915Z,56.25
2019-06-20T09:33:08.215Z,55.74
2019-06-20T09:35:35.523Z,56.20
2019-06-20T09:38:03.454Z,56.42
2019-06-20T09:40:32.295Z,56.53
2019-06-20T09:42:59.096Z,56.59
2019-06-20T09:45:26.225Z,57.20
2019-06-20T09:47:53.767Z,57.04
2019-06-20T09:50:22.412Z,57.43
2019-06-20T09:52:53.144Z,57.61
2019-06-20T09:55:20.739Z,57.40
2019-06-20T09:57:49.221Z,57.58
2019-06-20T10:00:21.578Z,57.96
2019-06-20T10:02:48.889Z,57.93
2019-06-20T10:05:23.309Z,58.81
2019-06-20T10:07:52.254Z,57.92
2019-06-20T10:10:23.683Z,58.53
2019-06-20T10:12:51.663Z,59.49
2019-06-20T10:15:23.861Z,59.29
2019-06-20T10:17:51.870Z,60.05
2019-06-20T10:20:21.237Z,61.22
2019-06-20T10:22:50.981Z,59.95
2019-06-20T10:25:18.969Z,61.68
2019-06-20T10:27:46.543Z,61.23
2019-06-20T10:30:15.760Z,60.40
2019-06-20T10:32:42.658Z,59.96
2019-06-20T10:35:12.379Z,59.76
2019-06-20T10:37:39.943Z,59.99
2019-06-20T10:40:08.060Z,58.82
2019-06-20T10:42:34.878Z,59.51
2019-06-20T10:45:05.699Z,58.65
2019-06-20T10:47:35.959Z,59.37
2019-06-20T10:50:01.203Z,59.04
2019-06-20T10:52:27.842Z,57.57
2019-06-20T10:54:54.636Z,59.53
2019-06-20T10:57:21.654Z,57.55
2019-06-20T10:59:48.475Z,57.70
2019-06-20T11:02:15.140Z,56.88
2019-06-20T11:04:42.324Z,56.28
2019-06-20T11:07:10.591Z,57.12
2019-06-20T11:09:39.605Z,56.34
2019-06-20T11:12:06.560Z,56.49
2019-06-20T11:14:33.251Z,56.45
2019-06-20T11:16:59.953Z,56.50
2019-06-20T11:19:26.632Z,56.29
2019-06-20T11:21:53.225Z,56.26
2019-06-20T11:24:19.827Z,56.18
2019-06-20T11:26:47.860Z,55.30
2019-06-20T11:29:14.999Z,55.21
2019-06-20T11:31:44.679Z,55.13
2019-06-20T11:34:10.356Z,53.84
2019-06-20T11:36:38.650Z,53.56
2019-06-20T11:39:06.456Z,53.90
2019-06-20T11:41:33.331Z,53.58
2019-06-20T11:43:59.935Z,53.83
2019-06-20T11:46:26.717Z,53.66
2019-06-20T11:48:53.297Z,52.67
2019-06-20T11:51:20.020Z,53.15
2019-06-20T11:53:46.749Z,53.24
2019-06-20T11:56:13.566Z,53.10
2019-06-20T11:58:40.255Z,52.84
2019-06-20T12:01:06.839Z,51.87
2019-06-20T12:03:33.640Z,51.50
2019-06-20T12:06:00.225Z,53.02
2019-06-20T12:08:27.006Z,51.94
2019-06-20T12:10:53.601Z,51.98
2019-06-20T12:13:20.172Z,51.68
2019-06-20T12:15:46.847Z,51.58
2019-06-20T12:18:13.591Z,51.53
2019-06-20T12:20:41.176Z,51.24
2019-06-20T12:23:08.307Z,51.92
2019-06-20T12:25:35.191Z,51.56
2019-06-20T12:28:01.982Z,52.17
2019-06-20T12:30:33.913Z,51.47
2019-06-20T12:33:00.613Z,51.06
2019-06-20T12:35:27.265Z,50.56
2019-06-20T12:37:53.882Z,50.29
2019-06-20T12:40:21.184Z,49.70
2019-06-20T12:42:49.276Z,49.55
2019-06-20T12:45:16.977Z,48.12
2019-06-20T12:47:43.942Z,49.26
2019-06-20T12:50:13.007Z,49.65
2019-06-20T12:52:41.254Z,50.27
2019-06-20T12:55:11.798Z,49.54
2019-06-20T12:57:42.250Z,48.07
2019-06-20T13:00:12.058Z,47.37
2019-06-20T13:02:40.405Z,46.04
2019-06-20T13:05:09.037Z,46.78
2019-06-20T13:07:35.987Z,46.62
2019-06-20T13:10:06.779Z,46.06
2019-06-20T13:12:33.515Z,46.54
2019-06-20T13:15:00.432Z,46.24
2019-06-20T13:17:27.038Z,46.32
2019-06-20T13:19:53.963Z,44.84
2019-06-20T13:22:20.740Z,44.52
2019-06-20T13:24:47.422Z,45.78
2019-06-20T13:27:14.044Z,44.27
2019-06-20T13:29:40.862Z,43.90
2019-06-20T13:32:07.547Z,43.75
2019-06-20T13:34:34.211Z,43.59
2019-06-20T13:37:00.856Z,43.36
2019-06-20T13:39:27.546Z,42.92
2019-06-20T13:41:54.311Z,42.22
2019-06-20T13:44:21.782Z,43.13
2019-06-20T13:46:49.146Z,42.16
2019-06-20T13:49:15.889Z,42.13
2019-06-20T13:51:43.351Z,42.81
2019-06-20T13:54:10.217Z,42.74
2019-06-20T13:56:40.210Z,44.02
2019-06-20T13:59:10.045Z,44.57
2019-06-20T14:01:35.491Z,45.15
2019-06-20T14:04:02.499Z,43.58
2019-06-20T14:06:29.184Z,43.32
2019-06-20T14:08:55.929Z,43.26
2019-06-20T14:11:22.874Z,42.66
2019-06-20T14:13:52.832Z,43.18
2019-06-20T14:16:18.149Z,41.10
2019-06-20T14:18:46.409Z,40.63
2019-06-20T14:21:13.653Z,39.36
2019-06-20T14:23:40.975Z,39.86
2019-06-20T14:26:09.152Z,39.84
2019-06-20T14:28:36.005Z,38.44
2019-06-20T14:31:03.184Z,38.09
2019-06-20T14:33:31.833Z,38.58
2019-06-20T14:35:59.159Z,37.88
2019-06-20T14:38:26.023Z,36.08
2019-06-20T14:40:52.929Z,35.10
2019-06-20T14:43:19.559Z,37.30
2019-06-20T14:45:46.842Z,35.58
2019-06-20T14:48:14.079Z,38.38
2019-06-20T14:50:40.822Z,35.66
2019-06-20T14:53:07.924Z,36.85
2019-06-20T14:55:34.529Z,36.87
2019-06-20T14:58:01.209Z,36.08
2019-06-20T15:00:28.222Z,36.95
2019-06-20T15:02:58.428Z,36.92
2019-06-20T15:05:23.838Z,36.06
2019-06-20T15:07:52.228Z,34.50
2019-06-20T15:10:19.814Z,35.60
2019-06-20T15:12:48.361Z,34.45
2019-06-20T15:15:17.107Z,34.26
2019-06-20T15:17:46.502Z,34.12
2019-06-20T15:20:13.310Z,35.44
2019-06-20T15:22:41.300Z,35.45
2019-06-20T15:25:08.931Z,34.53
2019-06-20T15:27:35.922Z,35.33
2019-06-20T15:30:06.609Z,34.84
2019-06-20T15:32:33.270Z,34.41
2019-06-20T15:35:01.896Z,35.46
2019-06-20T15:37:31.881Z,34.61
2019-06-20T15:39:58.694Z,35.24
2019-06-20T15:42:25.380Z,37.08
2019-06-20T15:44:52.086Z,36.17
2019-06-20T15:47:19.048Z,36.72
2019-06-20T15:49:45.703Z,37.01
2019-06-20T15:52:12.608Z,38.41
2019-06-20T15:54:39.204Z,36.56
2019-06-20T15:57:06.071Z,36.82
2019-06-20T15:59:32.740Z,37.16
2019-06-20T16:01:59.344Z,38.13
2019-06-20T16:04:26.190Z,37.88
2019-06-20T16:06:53.060Z,37.14
2019-06-20T16:09:19.968Z,36.99
2019-06-20T16:11:46.683Z,36.78
2019-06-20T16:14:13.843Z,37.12
2019-06-20T16:16:40.457Z,36.66
2019-06-20T16:19:07.055Z,37.74
2019-06-20T16:21:33.669Z,37.44
2019-06-20T16:24:00.528Z,36.59
2019-06-20T16:26:27.123Z,37.98
2019-06-20T16:28:53.725Z,39.10
2019-06-20T16:31:26.623Z,38.91
2019-06-20T16:33:49.042Z,40.83
2019-06-20T16:36:17.264Z,41.33
2019-06-20T16:38:43.978Z,40.21
2019-06-20T16:41:10.713Z,40.80
2019-06-20T16:43:37.672Z,40.74
2019-06-20T16:46:04.902Z,40.23
2019-06-20T16:48:31.948Z,39.92
2019-06-20T16:50:58.811Z,40.34
2019-06-20T16:53:25.823Z,40.18
2019-06-20T16:55:52.445Z,39.21
2019-06-20T16:58:20.470Z,38.62
2019-06-20T17:00:47.096Z,39.03
2019-06-20T17:03:13.827Z,39.19
2019-06-20T17:05:40.723Z,38.77
2019-06-20T17:08:07.866Z,39.31
2019-06-20T17:10:34.690Z,39.00
2019-06-20T17:13:01.734Z,40.41
2019-06-20T17:15:29.443Z,39.77
2019-06-20T17:17:56.138Z,39.57
2019-06-20T17:20:23.685Z,40.20
2019-06-20T17:22:50.492Z,40.25
2019-06-20T17:25:17.786Z,38.70
2019-06-20T17:27:44.700Z,38.55
2019-06-20T17:30:15.605Z,39.08
2019-06-20T17:32:42.525Z,38.47
2019-06-20T17:35:09.501Z,38.14
2019-06-20T17:37:36.576Z,38.93
2019-06-20T17:40:07.217Z,40.05
2019-06-20T17:42:34.140Z,41.45
2019-06-20T17:45:01.016Z,40.65
2019-06-20T17:47:27.933Z,43.20
2019-06-20T17:49:54.634Z,43.45
2019-06-20T17:52:21.207Z,44.27
2019-06-20T17:54:47.950Z,44.12
2019-06-20T17:57:15.404Z,45.50
2019-06-20T17:59:42.247Z,45.13
2019-06-20T18:02:09.162Z,45.22
2019-06-20T18:04:36.226Z,45.84
2019-06-20T18:07:03.014Z,45.94
2019-06-20T18:09:29.929Z,46.16
2019-06-20T18:11:56.641Z,46.82
2019-06-20T18:14:23.748Z,46.98
2019-06-20T18:16:50.966Z,47.00
2019-06-20T18:19:17.803Z,47.08
2019-06-20T18:21:46.255Z,47.73
2019-06-20T18:24:13.579Z,47.91
2019-06-20T18:26:42.233Z,48.42
2019-06-20T18:29:09.312Z,48.77
2019-06-20T18:31:36.327Z,48.46
2019-06-20T18:34:03.293Z,49.08
2019-06-20T18:36:33.200Z,48.84
2019-06-20T18:39:00.066Z,48.95
2019-06-20T18:41:26.668Z,49.33
2019-06-20T18:43:54.211Z,49.63
2019-06-20T18:46:21.815Z,49.31
2019-06-20T18:48:48.714Z,49.81
2019-06-20T18:51:15.403Z,50.32
2019-06-20T18:53:46.224Z,50.25
2019-06-20T18:56:13.228Z,50.36
2019-06-20T18:58:39.997Z,51.20
2019-06-20T19:01:06.809Z,51.61
2019-06-20T19:03:38.457Z,51.50
2019-06-20T19:06:05.250Z,50.91
2019-06-20T19:08:32.069Z,50.93
2019-06-20T19:10:59.292Z,50.77
2019-06-20T19:13:27.178Z,51.04
2019-06-20T19:15:54.025Z,51.34
2019-06-20T19:18:23.096Z,51.25
2019-06-20T19:20:49.915Z,51.26
2019-06-20T19:23:18.303Z,51.62
2019-06-20T19:25:45.391Z,51.40
2019-06-20T19:28:12.922Z,51.81
2019-06-20T19:30:44.945Z,52.49
2019-06-20T19:33:11.894Z,52.89
2019-06-20T19:35:39.693Z,52.80
2019-06-20T19:38:07.064Z,53.02
2019-06-20T19:40:39.445Z,53.01
2019-06-20T19:43:06.262Z,53.57
2019-06-20T19:45:32.968Z,53.77
2019-06-20T19:47:59.786Z,54.15
2019-06-20T19:50:26.577Z,54.68
2019-06-20T19:52:53.572Z,54.38
2019-06-20T19:55:20.889Z,54.26
2019-06-20T19:57:47.921Z,54.36
2019-06-20T20:00:18.053Z,54.43
2019-06-20T20:02:45.290Z,54.50
2019-06-20T20:05:19.046Z,54.73
2019-06-20T20:07:41.693Z,55.91
2019-06-20T20:10:09.570Z,55.76
2019-06-20T20:12:38.292Z,56.11
2019-06-20T20:15:08.482Z,56.37
2019-06-20T20:17:35.631Z,56.56
2019-06-20T20:20:05.260Z,57.08
2019-06-20T20:22:32.114Z,56.50
2019-06-20T20:24:58.881Z,56.51
2019-06-20T20:27:25.756Z,56.44
2019-06-20T20:29:52.327Z,56.05
2019-06-20T20:32:19.020Z,56.67
2019-06-20T20:34:45.735Z,57.75
2019-06-20T20:37:12.296Z,57.19
2019-06-20T20:39:39.318Z,57.61
2019-06-20T20:42:06.104Z,56.96
2019-06-20T20:44:32.858Z,56.48
2019-06-20T20:46:59.603Z,56.95
2019-06-20T20:49:26.285Z,56.35
2019-06-20T20:51:54.051Z,56.71
2019-06-20T20:54:23.461Z,57.86
2019-06-20T20:56:50.954Z,56.82
2019-06-20T20:59:17.891Z,56.54
2019-06-20T21:01:44.546Z,56.59
2019-06-20T21:04:11.373Z,57.31
2019-06-20T21:06:38.220Z,58.01
2019-06-20T21:09:06.348Z,58.19
2019-06-20T21:11:33.909Z,59.06
2019-06-20T21:14:00.808Z,57.47
2019-06-20T21:16:27.503Z,57.89
2019-06-20T21:18:54.621Z,58.59
2019-06-20T21:21:21.417Z,58.58
2019-06-20T21:23:48.306Z,59.46
2019-06-20T21:26:15.055Z,59.89
2019-06-20T21:28:41.880Z,59.06
2019-06-20T21:31:08.832Z,59.28
2019-06-20T21:33:35.535Z,60.12
2019-06-20T21:36:08.489Z,59.96
2019-06-20T21:38:30.907Z,60.87
2019-06-20T21:40:58.788Z,60.34
2019-06-20T21:43:25.500Z,60.05
2019-06-20T21:45:52.323Z,60.39
2019-06-20T21:48:19.123Z,59.36
2019-06-20T21:50:45.920Z,61.28
2019-06-20T21:53:12.704Z,59.67
2019-06-20T21:55:40.810Z,59.06
2019-06-20T21:58:07.622Z,58.82
2019-06-20T22:00:41.233Z,58.78
2019-06-20T22:03:13.635Z,58.49
2019-06-20T22:05:42.214Z,59.00
2019-06-20T22:08:09.408Z,58.51
2019-06-20T22:10:36.285Z,59.37
2019-06-20T22:13:04.159Z,59.97
2019-06-20T22:15:32.317Z,58.14
2019-06-20T22:17:59.305Z,57.91
2019-06-20T22:20:26.533Z,57.34
2019-06-20T22:22:53.342Z,57.55
2019-06-20T22:25:20.851Z,56.16
2019-06-20T22:27:47.977Z,55.35
2019-06-20T22:30:17.914Z,58.03
2019-06-20T22:32:44.476Z,56.86
2019-06-20T22:35:11.521Z,58.77
2019-06-20T22:37:38.382Z,59.07
2019-06-20T22:40:08.065Z,60.15
2019-06-20T22:42:34.993Z,63.30
2019-06-20T22:45:07.129Z,65.33
2019-06-20T22:47:34.386Z,68.65
2019-06-20T22:50:02.773Z,68.37
2019-06-20T22:52:29.574Z,67.43
2019-06-20T22:54:56.259Z,70.24
2019-06-20T22:57:23.309Z,71.69
2019-06-20T23:00:46.393Z,71.73
2019-06-20T23:03:13.284Z,71.72
2019-06-20T23:05:41.308Z,71.50
2019-06-20T23:08:08.280Z,72.14
2019-06-20T23:10:35.006Z,73.94
2019-06-20T23:13:01.851Z,74.61
2019-06-20T23:15:28.980Z,74.78
2019-06-20T23:17:55.579Z,75.37
2019-06-20T23:20:22.828Z,75.18
2019-06-20T23:22:49.549Z,73.26
2019-06-20T23:25:16.901Z,73.84
2019-06-20T23:27:44.450Z,74.60
2019-06-20T23:30:13.753Z,73.47
2019-06-20T23:32:40.492Z,72.36
2019-06-20T23:35:07.859Z,72.58
2019-06-20T23:37:34.896Z,73.57
2019-06-20T23:40:04.620Z,75.28
2019-06-20T23:42:31.267Z,73.69
2019-06-20T23:44:57.840Z,72.64
2019-06-20T23:47:24.574Z,71.69
2019-06-20T23:49:51.203Z,73.61
2019-06-20T23:52:20.233Z,74.32
2019-06-20T23:54:47.015Z,73.80
2019-06-20T23:57:13.743Z,73.18
2019-06-20T23:59:40.567Z,72.51
